Aérodrome :
LOGIN :

S'inscrire | Disclaimer

   EN    FR    IT 

 










Légende :    VFR   VFR Marginal   IFR   IFR Intensif   IFR Très Intensif
Visi : 
Plafond : 
>= 8 km
>= 3000ft
5 à 8 km
1000 à 3000 ft
1500m à 5 km
500 à 1000 ft
800 à 1500m
200 à 500 ft
< 800m
< 200 ft
Symboles :   Orages  Brouillard  Fortes neiges  Fortes précipitations  Vent > 20 kt
SIGMETs :   Divers  Orages  Givrage  Turbulence  Onde Orograph.  Cendres Volcan.







- Altitude de l'aérodrome : 194 ft
- Code IATA : LME
- Voir les cartes d'approche


LFRM - Le Mans

DERNIER METAR :
  • 281200Z AUTO 10005KT 060V140 9999 FEW039 SCT049 BKN058 11/06 Q1018 TEMPO BKN030TCU

METARs EXPIRÉS :
  • 281130Z AUTO 04007KT 9999 BKN030 OVC037 11/05 Q1018 TEMPO BKN030TCU
  • 281100Z AUTO 28006KT 220V320 9999 SCT027 BKN037 OVC048 12/04 Q1018 TEMPO BKN030TCU
  • 281030Z AUTO 26008KT 200V330 9999 BKN028 BKN044 BKN054 12/05 Q1018 TEMPO BKN030TCU
  • 281000Z AUTO 30004KT 210V010 9999 SCT021 SCT039 BKN047 12/05 Q1018 TEMPO BKN030TCU
  • 280930Z AUTO 27005KT 230V330 9999 SCT018 BKN044 BKN070 11/05 Q1019 TEMPO BKN030TCU

TAF TAF LFRM
Valide du 28 à 12h jusqu'au 28 à 21h UTC


281100Z 2812/2821 28005KT 9999 BKN035 BKN060
PROB40
TEMPO 2812/2818 -SHRA BKN030TCU
Pas de NOTAMs connus pour ce terrain.



MET'MAP, la Météo Aéronautique d'un coup d'oeil ! - Copyright ORBIFLY Décembre 2007 - Disclaimer

ORBIFLY MET'MAP TEAM :

Programmation & Développement : Alexandra Zaïnal
Conception & Développement : Baudouin d'Aumeries
Co-Programmation & Développement : Marc-Olivier Méhu
Soutien technique & logistique : Manuel Goepfert

Contact : metmap@orbifly.com




SOURCES & CREDITS :

   NOAA